createdAt,value
2016-05-07T08:06:54.724Z,1188
2016-05-07T08:07:54.243Z,1184
2016-05-07T08:08:54.182Z,1188
2016-05-07T08:09:54.201Z,1188
2016-05-07T08:10:54.157Z,1200
2016-05-07T08:11:54.128Z,1192
2016-05-07T08:12:53.818Z,1208
2016-05-07T08:13:54.196Z,1196
2016-05-07T08:14:54.230Z,1208
2016-05-07T08:15:53.843Z,1208
2016-05-07T08:16:53.845Z,1208
2016-05-07T08:17:54.050Z,1212
2016-05-07T08:18:54.647Z,1212
2016-05-07T08:19:54.478Z,1212
2016-05-07T08:20:54.059Z,1224
2016-05-07T08:21:53.812Z,1216
2016-05-07T08:22:53.861Z,1216
2016-05-07T08:23:53.879Z,1220
2016-05-07T08:24:54.460Z,1216
2016-05-07T08:25:53.542Z,1220
2016-05-07T08:26:53.872Z,1220
2016-05-07T08:27:53.733Z,1220
2016-05-07T08:28:53.788Z,1220
2016-05-07T08:29:53.927Z,1220
2016-05-07T08:30:54.255Z,1220
2016-05-07T08:31:53.863Z,1208
2016-05-07T08:32:53.909Z,1208
2016-05-07T08:33:53.732Z,1212
2016-05-07T08:34:54.141Z,1208
2016-05-07T08:35:54.003Z,1204
2016-05-07T08:36:55.756Z,1220
2016-05-07T08:37:55.976Z,1212
2016-05-07T08:38:54.758Z,1216
2016-05-07T08:39:56.752Z,1216
2016-05-07T08:40:53.900Z,1220
2016-05-07T08:41:53.909Z,1220
2016-05-07T08:42:55.105Z,1220
2016-05-07T08:43:55.613Z,1220
2016-05-07T08:44:54.274Z,1224
2016-05-07T08:45:54.295Z,1232
2016-05-07T08:46:54.330Z,1236
2016-05-07T08:47:53.928Z,1236
2016-05-07T08:48:54.199Z,1244
2016-05-07T08:49:54.281Z,1240
2016-05-07T08:50:53.737Z,1256
2016-05-07T08:51:54.459Z,1252
2016-05-07T08:52:53.744Z,1260
2016-05-07T08:53:53.512Z,1264
2016-05-07T08:54:55.187Z,1264
2016-05-07T08:55:53.957Z,1268
2016-05-07T08:56:54.804Z,1272
2016-05-07T08:57:54.400Z,1276
2016-05-07T08:58:53.591Z,1276
2016-05-07T08:59:53.687Z,1280
2016-05-07T09:00:53.596Z,1284
2016-05-07T09:01:53.474Z,1292
2016-05-07T09:02:53.554Z,1296
2016-05-07T09:03:53.558Z,1288
2016-05-07T09:04:53.451Z,1292
2016-05-07T09:05:53.485Z,1292
2016-05-07T09:06:53.377Z,1288
2016-05-07T09:07:53.505Z,1276
2016-05-07T09:08:53.540Z,1280
2016-05-07T09:09:53.418Z,1268
2016-05-07T09:10:53.388Z,1268
2016-05-07T09:11:53.329Z,1268
2016-05-07T09:12:53.393Z,1264
2016-05-07T09:13:53.351Z,1280
2016-05-07T09:14:53.399Z,1264
2016-05-07T09:15:53.449Z,1288
2016-05-07T09:16:53.076Z,1272
2016-05-07T09:17:53.173Z,1280
2016-05-07T09:18:53.192Z,1280
2016-05-07T09:19:53.523Z,1276
2016-05-07T09:20:53.384Z,1288
2016-05-07T09:21:53.324Z,1300
2016-05-07T09:22:52.984Z,1344
2016-05-07T09:23:53.377Z,1352
2016-05-07T09:24:53.005Z,1396
2016-05-07T09:25:53.039Z,1396
2016-05-07T09:26:53.088Z,1392
2016-05-07T09:27:53.419Z,1356
2016-05-07T09:28:53.547Z,1324
2016-05-07T09:29:53.018Z,1520
2016-05-07T09:30:53.317Z,1708
2016-05-07T09:31:53.148Z,1872
2016-05-07T09:32:53.260Z,1936
2016-05-07T09:33:53.013Z,1844
2016-05-07T09:34:53.375Z,1916
2016-05-07T09:35:52.816Z,1892
2016-05-07T09:36:53.037Z,1848
2016-05-07T09:37:52.555Z,1836
2016-05-07T09:38:53.167Z,1764
2016-05-07T09:39:52.857Z,1732
2016-05-07T09:40:52.876Z,1764
2016-05-07T09:41:53.566Z,1788
2016-05-07T09:42:57.678Z,1844
2016-05-07T09:43:53.509Z,1804
2016-05-07T09:44:53.059Z,1684
2016-05-07T09:45:52.827Z,1596
2016-05-07T09:46:52.829Z,1556
2016-05-07T09:47:53.520Z,1504
2016-05-07T09:48:53.537Z,1464
2016-05-07T09:49:53.540Z,1440
2016-05-07T09:50:52.715Z,1444
2016-05-07T09:51:52.781Z,1424
2016-05-07T09:52:56.392Z,1432
2016-05-07T09:53:52.786Z,1420
2016-05-07T09:54:55.538Z,1424
2016-05-07T09:55:53.620Z,1412
2016-05-07T09:56:52.825Z,1392
2016-05-07T09:57:53.609Z,1412
2016-05-07T09:58:52.752Z,1404
2016-05-07T09:59:52.536Z,1432
2016-05-07T10:00:52.805Z,1420
2016-05-07T10:01:52.573Z,1412
2016-05-07T10:02:52.794Z,1404
2016-05-07T10:03:52.485Z,1392
2016-05-07T10:04:52.550Z,1392
2016-05-07T10:05:52.365Z,1380
2016-05-07T10:06:52.836Z,1412
2016-05-07T10:07:52.464Z,1424
2016-05-07T10:08:52.435Z,1444
2016-05-07T10:09:52.485Z,1432
2016-05-07T10:10:52.394Z,1388
2016-05-07T10:11:52.787Z,1352
2016-05-07T10:12:53.024Z,1340
2016-05-07T10:14:52.295Z,1360
2016-05-07T10:15:52.313Z,1372
2016-05-07T10:16:52.238Z,1408
2016-05-07T10:17:52.507Z,1468
2016-05-07T10:18:53.431Z,1464
2016-05-07T10:20:52.452Z,1484
2016-05-07T10:21:52.111Z,1508
2016-05-07T10:22:52.347Z,1504
2016-05-07T10:23:52.256Z,1472
2016-05-07T10:24:52.167Z,1472
2016-05-07T10:25:53.169Z,1468
2016-05-07T10:26:53.342Z,1432
2016-05-07T10:27:53.888Z,1424
2016-05-07T10:28:52.140Z,1376
2016-05-07T10:30:00.080Z,1420
2016-05-07T10:30:54.318Z,1404
2016-05-07T10:31:53.648Z,1412
2016-05-07T10:32:52.855Z,1472
2016-05-07T10:33:52.013Z,1180
2016-05-07T10:34:52.017Z,1100
2016-05-07T10:35:51.894Z,1112
2016-05-07T10:36:52.271Z,1360
2016-05-07T10:37:57.806Z,1356
2016-05-07T10:38:52.261Z,2048
2016-05-07T10:39:52.466Z,2352
2016-05-07T10:40:52.001Z,2416
2016-05-07T10:41:52.129Z,2236
2016-05-07T10:42:52.538Z,1964
2016-05-07T10:43:52.040Z,1848
2016-05-07T10:44:52.168Z,1728
2016-05-07T10:45:51.983Z,1664
2016-05-07T10:46:52.048Z,1632
2016-05-07T10:47:53.254Z,1616
2016-05-07T10:48:52.804Z,1576
2016-05-07T10:49:52.244Z,1592
2016-05-07T10:50:52.121Z,1600
2016-05-07T10:51:54.906Z,1648
2016-05-07T10:52:51.752Z,1676
2016-05-07T10:53:52.317Z,1628
2016-05-07T10:54:52.117Z,1660
2016-05-07T10:55:52.306Z,1716
2016-05-07T10:56:52.263Z,1768
2016-05-07T10:57:51.529Z,1852
2016-05-07T10:58:52.470Z,1792
2016-05-07T11:00:05.959Z,1764
2016-05-07T11:00:51.834Z,1784
2016-05-07T11:01:51.758Z,1712
2016-05-07T11:02:52.138Z,1684
2016-05-07T11:03:51.575Z,1696
2016-05-07T11:04:51.485Z,1700
2016-05-07T11:05:51.597Z,1696
2016-05-07T11:06:54.368Z,1760
2016-05-07T11:07:51.509Z,1760
2016-05-07T11:08:51.308Z,1816
2016-05-07T11:09:53.625Z,1892
2016-05-07T11:10:51.969Z,2092
2016-05-07T11:11:51.269Z,2180
2016-05-07T11:12:51.663Z,2244
2016-05-07T11:13:51.337Z,2200
2016-05-07T11:14:51.636Z,2160
2016-05-07T11:15:51.358Z,2080
2016-05-07T11:16:51.423Z,2048
2016-05-07T11:17:51.269Z,1972
2016-05-07T11:18:51.569Z,1872
2016-05-07T11:19:52.621Z,1880
2016-05-07T11:20:52.215Z,1848
2016-05-07T11:21:51.609Z,1828
2016-05-07T11:22:51.392Z,1804
2016-05-07T11:23:51.801Z,1796
2016-05-07T11:24:51.835Z,1808
2016-05-07T11:25:51.651Z,1848
2016-05-07T11:26:52.781Z,1884
2016-05-07T11:28:04.862Z,1940
2016-05-07T11:28:51.471Z,2028
2016-05-07T11:29:51.130Z,2208
2016-05-07T11:30:51.679Z,2308
2016-05-07T11:31:51.761Z,2304
2016-05-07T11:32:51.169Z,2244
2016-05-07T11:33:51.063Z,2224
2016-05-07T11:34:50.940Z,2232
2016-05-07T11:35:51.178Z,2208
2016-05-07T11:36:51.336Z,2160
2016-05-07T11:37:50.979Z,2140
2016-05-07T11:38:51.014Z,2104
2016-05-07T11:39:51.032Z,2020
2016-05-07T11:40:50.785Z,1972
2016-05-07T11:41:50.912Z,1944
2016-05-07T11:42:51.494Z,1932
2016-05-07T11:43:50.949Z,1932
2016-05-07T11:44:51.107Z,2156
2016-05-07T11:45:50.674Z,2012
2016-05-07T11:46:51.222Z,1424
2016-05-07T11:47:50.929Z,2748
2016-05-07T11:48:50.806Z,1988
2016-05-07T11:49:50.855Z,2232
2016-05-07T11:50:50.999Z,2100
2016-05-07T11:51:50.815Z,2024
2016-05-07T11:52:50.723Z,1896
2016-05-07T11:53:50.804Z,1972
2016-05-07T11:54:50.963Z,1912
2016-05-07T11:55:50.700Z,1996
2016-05-07T11:56:50.734Z,1940
2016-05-07T11:57:51.126Z,3588
2016-05-07T11:58:50.693Z,1308
2016-05-07T11:59:50.695Z,8004
2016-05-07T12:00:50.542Z,7288
2016-05-07T12:01:50.622Z,4352
2016-05-07T12:02:50.797Z,20576
2016-05-07T12:03:50.643Z,11784
2016-05-07T12:04:50.802Z,8820
2016-05-07T12:05:50.711Z,3272
2016-05-07T12:06:50.808Z,3440
2016-05-07T12:07:50.608Z,4632
2016-05-07T12:08:50.625Z,35136
2016-05-07T12:09:50.581Z,4768
2016-05-07T12:10:50.397Z,3712
2016-05-07T12:11:50.477Z,8312
2016-05-07T12:12:51.574Z,10316
2016-05-07T12:13:50.452Z,2776
2016-05-07T12:14:50.844Z,2532
2016-05-07T12:15:50.410Z,2556
2016-05-07T12:16:50.413Z,2496
2016-05-07T12:17:50.399Z,2472
2016-05-07T12:18:50.387Z,2456
2016-05-07T12:19:50.405Z,2548
2016-05-07T12:20:50.611Z,2556
2016-05-07T12:21:50.160Z,2856
2016-05-07T12:22:50.335Z,6000
2016-05-07T12:23:50.276Z,4392
2016-05-07T12:24:50.496Z,12248
2016-05-07T12:25:49.968Z,37696
2016-05-07T12:26:50.579Z,48736
2016-05-07T12:27:51.427Z,24576
2016-05-07T12:28:50.195Z,50592
2016-05-07T12:29:50.182Z,51744
2016-05-07T12:30:50.497Z,43008
2016-05-07T12:31:50.265Z,18688
2016-05-07T12:32:50.456Z,4820
2016-05-07T12:33:49.802Z,3116
2016-05-07T12:34:49.977Z,16448
2016-05-07T12:35:50.119Z,3640
2016-05-07T12:36:49.967Z,4000
2016-05-07T12:37:50.016Z,3260
2016-05-07T12:38:50.112Z,2968
2016-05-07T12:39:50.036Z,3068
2016-05-07T12:40:50.243Z,3596
2016-05-07T12:41:50.199Z,3236
2016-05-07T12:42:50.139Z,2688
2016-05-07T12:43:50.125Z,3316
2016-05-07T12:44:50.566Z,4512
2016-05-07T12:45:49.991Z,2836
2016-05-07T12:46:49.853Z,2756
2016-05-07T12:47:49.965Z,3012
2016-05-07T12:48:50.124Z,2940
2016-05-07T12:49:49.924Z,2984
2016-05-07T12:50:49.785Z,2968
2016-05-07T12:51:49.601Z,2988
2016-05-07T12:52:49.931Z,3784
2016-05-07T12:53:49.793Z,3480
2016-05-07T12:54:50.451Z,3312
2016-05-07T12:55:49.737Z,2892
2016-05-07T12:56:49.957Z,3616
2016-05-07T12:57:49.773Z,5888
2016-05-07T12:58:50.120Z,5692
2016-05-07T12:59:49.857Z,3720
2016-05-07T13:00:49.765Z,3920
2016-05-07T13:01:49.940Z,4264
2016-05-07T13:02:50.006Z,4616
2016-05-07T13:03:49.789Z,3892
2016-05-07T13:04:49.745Z,3948
2016-05-07T13:05:49.669Z,3412
2016-05-07T13:06:50.516Z,3288
2016-05-07T13:07:49.534Z,2948
2016-05-07T13:08:49.989Z,4068
2016-05-07T13:09:49.727Z,3128
2016-05-07T13:10:49.636Z,3036
2016-05-07T13:11:49.592Z,2264
2016-05-07T13:12:49.657Z,2908
2016-05-07T13:13:49.675Z,5196
2016-05-07T13:14:49.599Z,14748
2016-05-07T13:15:49.556Z,31552
2016-05-07T13:16:49.605Z,15596
2016-05-07T13:17:49.498Z,34240
2016-05-07T13:18:49.641Z,43552
2016-05-07T13:19:49.144Z,3308
2016-05-07T13:20:49.757Z,20736
2016-05-07T13:21:49.524Z,14236
2016-05-07T13:22:49.277Z,2588
2016-05-07T13:23:49.218Z,3008
2016-05-07T13:24:49.235Z,12892
2016-05-07T13:25:49.395Z,5812
2016-05-07T13:26:49.335Z,9484
2016-05-07T13:27:49.213Z,4056
2016-05-07T13:28:49.528Z,65952
2016-05-07T13:29:49.156Z,63904
2016-05-07T13:30:49.501Z,44928
2016-05-07T13:31:49.051Z,30304
2016-05-07T13:32:49.836Z,37536
2016-05-07T13:33:49.370Z,40960
2016-05-07T13:34:49.294Z,53728
2016-05-07T13:35:49.125Z,66080
2016-05-07T13:36:49.112Z,78464
2016-05-07T13:37:49.068Z,81088
2016-05-07T13:38:49.477Z,75168
2016-05-07T13:39:49.292Z,6136
2016-05-07T13:40:49.342Z,4996
2016-05-07T13:41:49.563Z,6328
2016-05-07T13:42:49.175Z,14116
2016-05-07T13:43:48.912Z,3864
2016-05-07T13:44:49.165Z,4960
2016-05-07T13:45:49.292Z,5592
2016-05-07T13:46:48.967Z,42464
2016-05-07T13:47:49.016Z,43264
2016-05-07T13:48:49.129Z,5764
2016-05-07T13:49:48.897Z,11528
2016-05-07T13:50:49.135Z,25344
2016-05-07T13:51:49.090Z,11624
2016-05-07T13:52:49.030Z,7164
2016-05-07T13:53:48.908Z,19840
2016-05-07T13:54:48.880Z,21824
2016-05-07T13:55:49.069Z,11436
2016-05-07T13:56:49.150Z,11620
2016-05-07T13:57:49.059Z,8840
2016-05-07T13:58:49.156Z,38880
2016-05-07T13:59:48.986Z,14872
2016-05-07T14:00:49.520Z,9540
2016-05-07T14:01:49.039Z,49568
2016-05-07T14:02:49.026Z,32928
2016-05-07T14:03:48.997Z,35584
2016-05-07T14:04:49.031Z,38688
2016-05-07T14:05:48.815Z,29696
2016-05-07T14:06:49.098Z,31072
2016-05-07T14:07:48.915Z,21952
2016-05-07T14:08:49.354Z,16544
2016-05-07T14:09:48.967Z,13228
2016-05-07T14:10:48.609Z,8520
2016-05-07T14:11:48.925Z,13644
2016-05-07T14:12:49.850Z,5208
2016-05-07T14:13:48.900Z,5872
2016-05-07T14:14:48.699Z,22368
2016-05-07T14:15:48.889Z,23008
2016-05-07T14:16:48.908Z,29600
2016-05-07T14:17:48.676Z,4680
2016-05-07T14:18:48.881Z,3720
2016-05-07T14:19:48.883Z,5420
2016-05-07T14:20:48.824Z,3896
2016-05-07T14:21:48.671Z,4952
2016-05-07T14:22:48.970Z,4548
2016-05-07T14:23:48.738Z,4016
2016-05-07T14:24:48.913Z,3420
2016-05-07T14:25:48.604Z,2932
2016-05-07T14:26:49.106Z,3432
2016-05-07T14:27:49.562Z,3004
2016-05-07T14:28:48.768Z,2828
2016-05-07T14:29:48.755Z,2384
2016-05-07T14:30:48.820Z,2540
2016-05-07T14:31:48.682Z,2672
2016-05-07T14:32:48.716Z,2552
2016-05-07T14:33:48.547Z,3212
2016-05-07T14:34:48.768Z,5564
2016-05-07T14:35:49.176Z,7984
2016-05-07T14:36:48.539Z,53600
2016-05-07T14:37:48.651Z,54752
2016-05-07T14:38:48.997Z,35904
2016-05-07T14:39:48.656Z,53248
2016-05-07T14:40:48.425Z,42912
2016-05-07T14:41:48.818Z,79104
2016-05-07T14:42:48.820Z,47360
2016-05-07T14:43:48.698Z,54688
2016-05-07T14:44:48.780Z,61344
2016-05-07T14:45:48.454Z,58080
2016-05-07T14:46:48.566Z,58432
2016-05-07T14:47:48.616Z,62112
2016-05-07T14:48:48.556Z,71392
2016-05-07T14:49:48.575Z,70528
2016-05-07T14:50:49.264Z,71040
2016-05-07T14:51:48.673Z,70144
2016-05-07T14:52:48.519Z,63968
2016-05-07T14:53:48.710Z,53568
2016-05-07T14:54:48.681Z,69312
2016-05-07T14:55:48.606Z,57856
2016-05-07T14:56:48.655Z,59040
2016-05-07T14:57:53.908Z,78560
2016-05-07T14:58:48.676Z,72640
2016-05-07T14:59:48.445Z,62240
2016-05-07T15:00:48.401Z,59424
2016-05-07T15:01:48.434Z,54848
2016-05-07T15:02:48.624Z,55008
2016-05-07T15:03:48.518Z,56128
2016-05-07T15:04:48.615Z,56576
2016-05-07T15:05:48.586Z,57088
2016-05-07T15:06:48.635Z,54752
2016-05-07T15:07:48.482Z,49472
2016-05-07T15:08:48.094Z,61600
2016-05-07T15:09:48.862Z,42880
2016-05-07T15:10:48.349Z,15520
2016-05-07T15:12:02.401Z,16384
2016-05-07T15:12:48.651Z,14108
2016-05-07T15:13:48.326Z,12144
2016-05-07T15:14:48.641Z,21184
2016-05-07T15:15:48.175Z,22304
2016-05-07T15:16:48.334Z,16672
2016-05-07T15:17:48.383Z,2568
2016-05-07T15:18:48.605Z,2460
2016-05-07T15:19:48.342Z,2688
2016-05-07T15:20:48.548Z,2768
2016-05-07T15:21:48.285Z,2440
2016-05-07T15:22:48.350Z,2800
2016-05-07T15:23:48.275Z,2988
2016-05-07T15:24:48.496Z,7644
2016-05-07T15:25:48.218Z,6340
2016-05-07T15:26:48.721Z,6888
2016-05-07T15:27:48.192Z,7616
2016-05-07T15:28:48.226Z,8040
2016-05-07T15:29:48.307Z,3112
2016-05-07T15:30:48.529Z,5176
2016-05-07T15:31:48.218Z,4948
2016-05-07T15:32:48.095Z,3416
2016-05-07T15:33:48.161Z,2848
2016-05-07T15:34:48.070Z,2752
2016-05-07T15:35:48.026Z,2904
2016-05-07T15:36:48.247Z,2868
2016-05-07T15:37:48.187Z,2984
2016-05-07T15:38:48.643Z,7620
2016-05-07T15:39:48.505Z,3856
2016-05-07T15:40:48.180Z,2772
2016-05-07T15:41:48.261Z,2756
2016-05-07T15:42:48.498Z,2580
2016-05-07T15:43:48.172Z,2352
2016-05-07T15:44:48.425Z,4224
2016-05-07T15:45:48.115Z,2080
2016-05-07T15:46:48.134Z,1892
2016-05-07T15:47:47.933Z,1944
2016-05-07T15:48:48.181Z,1964
2016-05-07T15:49:48.106Z,1984
2016-05-07T15:50:48.577Z,5956
2016-05-07T15:51:48.048Z,3352
2016-05-07T15:52:48.020Z,3116
2016-05-07T15:53:48.070Z,2324
2016-05-07T15:54:48.369Z,2224
2016-05-07T15:55:48.152Z,6248
2016-05-07T15:56:49.797Z,6212
2016-05-07T15:57:48.643Z,4900
2016-05-07T15:58:47.973Z,2324
2016-05-07T15:59:48.070Z,1920
2016-05-07T16:00:48.041Z,1884
2016-05-07T16:01:47.824Z,1832
2016-05-07T16:02:47.984Z,1896
2016-05-07T16:03:47.846Z,1924
2016-05-07T16:04:48.318Z,1960
2016-05-07T16:05:48.117Z,1864
2016-05-07T16:06:48.135Z,1828
2016-05-07T16:07:47.951Z,1832
2016-05-07T16:08:48.126Z,1888
2016-05-07T16:09:47.800Z,1928
2016-05-07T16:10:47.724Z,3704
2016-05-07T16:11:47.836Z,4308
2016-05-07T16:12:48.042Z,4216
2016-05-07T16:13:48.030Z,3692
2016-05-07T16:14:47.954Z,3144
2016-05-07T16:15:47.769Z,3584
2016-05-07T16:16:47.662Z,1844
2016-05-07T16:17:47.837Z,3872
2016-05-07T16:18:48.215Z,5436
2016-05-07T16:19:47.781Z,4680
2016-05-07T16:20:48.016Z,4176
2016-05-07T16:21:47.925Z,4152
2016-05-07T16:22:47.788Z,2292
2016-05-07T16:23:47.775Z,3932
2016-05-07T16:24:48.449Z,5020
2016-05-07T16:25:47.859Z,4816
2016-05-07T16:26:48.064Z,4688
2016-05-07T16:27:47.957Z,4156
2016-05-07T16:28:47.991Z,3608
2016-05-07T16:29:48.025Z,3476
2016-05-07T16:30:47.560Z,3432
2016-05-07T16:31:47.610Z,2684
2016-05-07T16:32:47.643Z,2108
2016-05-07T16:33:47.582Z,2084
2016-05-07T16:34:47.524Z,2696
2016-05-07T16:35:47.605Z,2668
2016-05-07T16:36:47.607Z,1832
2016-05-07T16:37:47.344Z,1824
2016-05-07T16:38:47.596Z,1816
2016-05-07T16:39:47.443Z,1952
2016-05-07T16:40:47.524Z,1968
2016-05-07T16:41:47.557Z,2036
2016-05-07T16:42:49.607Z,2516
2016-05-07T16:43:47.312Z,3296
2016-05-07T16:44:48.425Z,2508
2016-05-07T16:45:47.304Z,1880
2016-05-07T16:46:47.259Z,1532
2016-05-07T16:47:47.214Z,1460
2016-05-07T16:48:47.405Z,1416
2016-05-07T16:49:47.412Z,1368
2016-05-07T16:50:47.509Z,1372
2016-05-07T16:51:47.527Z,1388
2016-05-07T16:52:47.389Z,1344
2016-05-07T16:53:47.282Z,1376
2016-05-07T16:54:47.410Z,1380
2016-05-07T16:55:47.382Z,1360
2016-05-07T16:56:47.244Z,1368
2016-05-07T16:57:47.606Z,2524
2016-05-07T16:58:46.625Z,3752
2016-05-07T16:59:47.768Z,4020
2016-05-07T17:00:47.567Z,1560
2016-05-07T17:01:47.648Z,1748
2016-05-07T17:02:47.368Z,1672
2016-05-07T17:03:47.294Z,1560
2016-05-07T17:04:47.297Z,1480
2016-05-07T17:05:50.252Z,1528
2016-05-07T17:06:47.162Z,1992
2016-05-07T17:07:47.242Z,4168
2016-05-07T17:08:47.323Z,4192
2016-05-07T17:09:47.248Z,4328
2016-05-07T17:10:47.047Z,4444
2016-05-07T17:11:47.159Z,4760
2016-05-07T17:12:50.021Z,4464
2016-05-07T17:13:47.133Z,3868
2016-05-07T17:14:47.151Z,3572
2016-05-07T17:15:47.154Z,3592
2016-05-07T17:16:47.156Z,3580
2016-05-07T17:17:47.097Z,3536
2016-05-07T17:18:47.271Z,3084
2016-05-07T17:19:47.164Z,2576
2016-05-07T17:20:47.090Z,2516
2016-05-07T17:21:47.092Z,1496
2016-05-07T17:22:47.017Z,856
2016-05-07T17:23:46.691Z,836
2016-05-07T17:24:46.881Z,832
2016-05-07T17:25:46.978Z,828
2016-05-07T17:26:46.980Z,812
2016-05-07T17:27:47.608Z,840
2016-05-07T17:28:46.971Z,876
2016-05-07T17:30:46.929Z,892
2016-05-07T17:31:46.744Z,876
2016-05-07T17:32:46.934Z,872
2016-05-07T17:33:46.891Z,868
2016-05-07T17:34:46.955Z,876
2016-05-07T17:35:47.219Z,868
2016-05-07T17:36:46.936Z,864
2016-05-07T17:37:46.997Z,852
2016-05-07T17:38:47.042Z,860
2016-05-07T17:39:47.009Z,864
2016-05-07T17:40:46.905Z,876
2016-05-07T17:41:46.861Z,904
2016-05-07T17:42:47.957Z,868
2016-05-07T17:43:46.974Z,884
2016-05-07T17:44:47.242Z,872
2016-05-07T17:45:47.194Z,912
2016-05-07T17:46:46.859Z,888
2016-05-07T17:47:46.977Z,864
2016-05-07T17:48:47.189Z,848
2016-05-07T17:49:46.994Z,832
2016-05-07T17:50:47.080Z,812
2016-05-07T17:52:00.615Z,792
2016-05-07T17:52:47.058Z,788
2016-05-07T17:53:46.968Z,772
2016-05-07T17:54:46.926Z,764
2016-05-07T17:55:47.164Z,748
2016-05-07T17:56:47.075Z,728
2016-05-07T17:57:46.781Z,712
2016-05-07T17:58:47.004Z,656
2016-05-07T17:59:47.022Z,644
2016-05-07T18:00:47.072Z,636
2016-05-07T18:01:46.731Z,632
2016-05-07T18:02:47.077Z,628
2016-05-07T18:03:46.971Z,616
2016-05-07T18:04:46.896Z,604
2016-05-07T18:05:46.601Z,596
2016-05-07T18:06:47.135Z,596
2016-05-07T18:07:46.904Z,556
2016-05-07T18:08:47.110Z,544
2016-05-07T18:09:46.643Z,544
2016-05-07T18:10:46.568Z,532
2016-05-07T18:11:46.868Z,512
2016-05-07T18:12:47.401Z,500
2016-05-07T18:13:46.716Z,488
2016-05-07T18:14:47.110Z,484
2016-05-07T18:15:46.487Z,480
2016-05-07T18:16:46.521Z,464
2016-05-07T18:17:46.618Z,452
2016-05-07T18:18:46.918Z,444
2016-05-07T18:19:46.561Z,428
2016-05-07T18:20:46.985Z,416
2016-05-07T18:21:46.706Z,400
2016-05-07T18:22:46.412Z,388
2016-05-07T18:23:46.634Z,372
2016-05-07T18:24:46.589Z,364
2016-05-07T18:25:46.717Z,352
2016-05-07T18:26:46.861Z,340
2016-05-07T18:27:47.004Z,328
2016-05-07T18:28:46.445Z,316
2016-05-07T18:29:46.244Z,304
2016-05-07T18:30:46.466Z,296
2016-05-07T18:31:46.499Z,284
2016-05-07T18:32:46.612Z,276
2016-05-07T18:33:46.505Z,268
2016-05-07T18:34:46.351Z,256
2016-05-07T18:35:46.370Z,248
2016-05-07T18:36:46.763Z,236
2016-05-07T18:37:46.500Z,228
2016-05-07T18:38:46.283Z,220
2016-05-07T18:39:46.146Z,212
2016-05-07T18:40:46.368Z,200
2016-05-07T18:41:46.480Z,188
2016-05-07T18:42:46.373Z,180
2016-05-07T18:43:46.032Z,172
2016-05-07T18:44:46.159Z,160
2016-05-07T18:45:45.865Z,152
2016-05-07T18:46:46.227Z,144
2016-05-07T18:47:46.402Z,136
2016-05-07T18:48:46.310Z,124
2016-05-07T18:49:46.329Z,120
2016-05-07T18:50:46.191Z,112
2016-05-07T18:51:46.351Z,108
2016-05-07T18:52:46.275Z,96
2016-05-07T18:53:46.292Z,92
2016-05-07T18:54:46.374Z,88
2016-05-07T18:55:46.079Z,80
2016-05-07T18:56:46.223Z,76
2016-05-07T18:57:46.116Z,68
2016-05-07T18:58:46.042Z,68
2016-05-07T18:59:46.044Z,64
2016-05-07T19:00:46.264Z,56
2016-05-07T19:01:46.065Z,52
2016-05-07T19:02:46.333Z,52
2016-05-07T19:03:45.897Z,44
2016-05-07T19:04:45.714Z,44
2016-05-07T19:05:49.122Z,36
2016-05-07T19:06:45.969Z,36
2016-05-07T19:07:46.034Z,32
2016-05-07T19:08:46.302Z,32
2016-05-07T19:09:45.913Z,28
2016-05-07T19:10:45.995Z,28
2016-05-07T19:11:45.888Z,24
2016-05-07T19:12:48.141Z,20
2016-05-07T19:13:45.784Z,16
2016-05-07T19:15:03.255Z,16
2016-05-07T19:15:45.774Z,16
2016-05-07T19:16:45.589Z,16
2016-05-07T19:17:45.546Z,12
2016-05-07T19:18:45.985Z,12
2016-05-07T19:19:45.785Z,8
2016-05-07T19:20:45.928Z,8
2016-05-07T19:21:46.384Z,8
2016-05-07T19:22:45.934Z,4
2016-05-07T19:23:45.760Z,4
2016-05-07T19:24:46.121Z,4
2016-05-07T19:25:45.984Z,4
2016-05-07T19:26:46.612Z,0
2016-05-07T19:27:45.707Z,4
2016-05-07T19:28:45.726Z,0
2016-05-07T19:29:45.604Z,0
2016-05-07T19:30:46.153Z,4
2016-05-07T19:31:45.703Z,4
2016-05-07T19:32:45.596Z,0
2016-05-07T19:33:45.506Z,0
2016-05-07T19:34:45.398Z,0
2016-05-07T19:35:45.495Z,0
2016-05-07T19:36:45.404Z,0
2016-05-07T19:37:45.734Z,0
2016-05-07T19:38:45.800Z,0
2016-05-07T19:39:45.271Z,0
2016-05-07T19:40:45.383Z,0
2016-05-07T19:41:45.401Z,0
2016-05-07T19:42:45.404Z,0
2016-05-07T19:43:45.314Z,0
2016-05-07T19:44:45.410Z,0
2016-05-07T19:45:45.725Z,0
2016-05-07T19:46:45.196Z,0
2016-05-07T19:47:45.199Z,0
2016-05-07T19:48:45.280Z,0
2016-05-07T19:49:45.360Z,0
2016-05-07T19:50:45.239Z,0
2016-05-07T19:51:45.210Z,0
2016-05-07T19:52:45.166Z,0
2016-05-07T19:53:45.184Z,0
2016-05-07T19:54:45.265Z,0
2016-05-07T19:55:45.190Z,0
2016-05-07T19:56:44.942Z,0
2016-05-07T19:57:45.367Z,0
2016-05-07T19:58:45.854Z,0
2016-05-07T19:59:45.060Z,0
2016-05-07T20:00:45.187Z,0
2016-05-07T20:01:44.706Z,0
2016-05-07T20:02:48.973Z,0
2016-05-07T20:03:45.101Z,0
2016-05-07T20:04:45.136Z,0
2016-05-07T20:05:44.732Z,0
2016-05-07T20:06:45.078Z,0
2016-05-07T20:07:44.862Z,0
2016-05-07T20:08:46.068Z,0
2016-05-07T20:09:44.758Z,0
2016-05-07T20:10:44.917Z,0
2016-05-07T20:11:45.670Z,0
2016-05-07T20:12:46.125Z,0
2016-05-07T20:13:45.003Z,0
2016-05-07T20:14:45.177Z,0
2016-05-07T20:15:44.774Z,0
2016-05-07T20:16:45.027Z,0
2016-05-07T20:17:44.764Z,0
2016-05-07T20:18:44.782Z,0
2016-05-07T20:19:45.004Z,0
2016-05-07T20:20:44.974Z,0
2016-05-07T20:21:44.510Z,0
2016-05-07T20:22:44.981Z,0
2016-05-07T20:23:44.546Z,0
2016-05-07T20:24:44.940Z,0
2016-05-07T20:25:45.348Z,0
2016-05-07T20:26:44.960Z,0
2016-05-07T20:27:45.291Z,0
2016-05-07T20:28:44.966Z,0
2016-05-07T20:29:44.671Z,0
2016-05-07T20:30:44.768Z,0
2016-05-07T20:31:44.317Z,0
2016-05-07T20:32:44.523Z,0
2016-05-07T20:33:44.526Z,0
2016-05-07T20:34:44.528Z,0
2016-05-07T20:35:45.282Z,0
2016-05-07T20:36:44.550Z,0
2016-05-07T20:37:44.380Z,0
2016-05-07T20:38:44.320Z,0
2016-05-07T20:39:44.761Z,0
2016-05-07T20:40:45.091Z,0
2016-05-07T20:41:44.422Z,0
2016-05-07T20:42:45.441Z,0
2016-05-07T20:43:44.522Z,0
2016-05-07T20:44:46.212Z,0
2016-05-07T20:45:44.371Z,0
2016-05-07T20:46:44.466Z,0
2016-05-07T20:47:45.314Z,0
2016-05-07T20:48:44.472Z,0
2016-05-07T20:49:44.724Z,0
2016-05-07T20:50:44.962Z,0
2016-05-07T20:51:44.371Z,0
2016-05-07T20:52:43.999Z,0
2016-05-07T20:53:44.596Z,0
2016-05-07T20:54:44.457Z,0
2016-05-07T20:55:44.913Z,0
2016-05-07T20:56:44.072Z,0
2016-05-07T20:57:44.215Z,0
2016-05-07T20:58:44.046Z,0
2016-05-07T20:59:46.768Z,0
2016-05-07T21:00:57.865Z,0
2016-05-07T21:01:44.290Z,0
2016-05-07T21:02:44.120Z,0
2016-05-07T21:03:43.997Z,0
2016-05-07T21:04:44.859Z,0
2016-05-07T21:05:44.190Z,0
2016-05-07T21:06:44.131Z,0
2016-05-07T21:07:43.789Z,0
2016-05-07T21:08:44.386Z,0
2016-05-07T21:09:43.903Z,0
2016-05-07T21:10:43.688Z,0
2016-05-07T21:11:43.644Z,0
2016-05-07T21:12:43.647Z,0
2016-05-07T21:13:44.133Z,0
2016-05-07T21:14:43.980Z,0
2016-05-07T21:15:43.873Z,0
2016-05-07T21:16:44.158Z,0
2016-05-07T21:17:43.613Z,0
2016-05-07T21:18:43.365Z,0
2016-05-07T21:19:43.681Z,0
2016-05-07T21:20:43.511Z,0
2016-05-07T21:21:44.921Z,0
2016-05-07T21:22:44.127Z,0
2016-05-07T21:23:43.755Z,0
2016-05-07T21:24:43.929Z,0
2016-05-07T21:25:43.806Z,0
2016-05-07T21:26:43.668Z,0
2016-05-07T21:27:43.624Z,0
2016-05-07T21:28:43.549Z,0
2016-05-07T21:29:43.551Z,0
2016-05-07T21:30:43.946Z,0
2016-05-07T21:31:43.620Z,0
2016-05-07T21:32:43.918Z,0
2016-05-07T21:33:43.531Z,0
2016-05-07T21:34:43.706Z,0
2016-05-07T21:35:44.037Z,0
2016-05-07T21:36:43.773Z,0
2016-05-07T21:37:43.292Z,0
2016-05-07T21:38:43.701Z,0
2016-05-07T21:39:46.641Z,0
2016-05-07T21:40:43.425Z,0
2016-05-07T21:41:43.459Z,0
2016-05-07T21:42:43.836Z,0
2016-05-07T21:44:44.045Z,0